Time;durP1;ratioP1;P1;durP2;ratioP2;P2;SDS_P1;SDS_P2;PMS_P1;PMS_P2;Temp;Humidity;BMP_temperature;BMP_pressure;BME280_temperature;BME280_humidity;BME280_pressure;Samples;Min_cycle;Max_cycle;Signal;HPM_P1;HPM_P2
2023/02/27 00:00:28;;;;;;;13.05;1.88;;;14.20;99.90;;;;;;5033209;28;20060;-73
2023/02/27 00:03:32;;;;;;;22.05;2.55;;;;;;;;;;5020812;28;20053;-74
2023/02/27 00:06:36;;;;;;;17.92;2.20;;;13.40;99.90;;;;;;5031897;28;20041;-74
2023/02/27 00:09:40;;;;;;;13.93;2.05;;;11.90;99.90;;;;;;5033377;28;20045;-74
2023/02/27 00:12:45;;;;;;;22.60;2.97;;;13.10;99.90;;;;;;5032848;28;20048;-74
2023/02/27 00:15:49;;;;;;;18.75;2.75;;;14.30;99.90;;;;;;5032727;28;20061;-74
2023/02/27 00:18:55;;;;;;;8.80;2.08;;;;;;;;;;5033105;28;20037;-74
2023/02/27 00:21:59;;;;;;;19.60;2.40;;;13.20;99.90;;;;;;5032202;28;20046;-74
2023/02/27 00:25:04;;;;;;;10.52;1.73;;;13.20;99.90;;;;;;5032546;28;20044;-74
2023/02/27 00:28:09;;;;;;;20.00;2.42;;;;;;;;;;5032893;28;20049;-74
2023/02/27 00:31:13;;;;;;;20.83;3.08;;;17.10;99.90;;;;;;5033220;28;20041;-74
2023/02/27 00:34:17;;;;;;;12.02;2.20;;;;;;;;;;5032535;28;20052;-74
2023/02/27 00:37:21;;;;;;;13.88;2.00;;;13.20;99.90;;;;;;5032986;28;20096;-74
2023/02/27 00:40:25;;;;;;;11.82;2.08;;;13.20;99.30;;;;;;5032794;28;20052;-73
2023/02/27 00:43:29;;;;;;;9.02;1.85;;;15.00;99.20;;;;;;5032005;28;20052;-73
2023/02/27 00:46:34;;;;;;;5.93;1.63;;;;;;;;;;5032302;28;20437;-73
2023/02/27 00:49:37;;;;;;;16.90;2.88;;;12.40;98.50;;;;;;5031556;28;20481;-73
2023/02/27 00:52:41;;;;;;;21.23;2.83;;;15.50;99.90;;;;;;5032404;28;20044;-73
2023/02/27 00:55:45;;;;;;;8.80;1.90;;;13.30;99.70;;;;;;5031783;28;20076;-73
2023/02/27 00:58:49;;;;;;;13.43;2.20;;;13.00;99.50;;;;;;5031772;28;20045;-73
2023/02/27 01:01:53;;;;;;;20.77;5.90;;;;;;;;;;5031055;28;20095;-74
2023/02/27 01:04:57;;;;;;;24.13;4.25;;;13.00;99.90;;;;;;5031833;28;20393;-74
2023/02/27 01:08:01;;;;;;;14.52;2.58;;;13.50;99.90;;;;;;5031801;28;20044;-73
2023/02/27 01:11:06;;;;;;;12.43;2.88;;;;;;;;;;5031104;28;20508;-73
2023/02/27 01:14:10;;;;;;;14.40;3.45;;;12.70;99.90;;;;;;5031535;28;20038;-73
2023/02/27 01:17:14;;;;;;;14.95;2.72;;;13.70;99.90;;;;;;5030968;28;20052;-74
2023/02/27 01:20:18;;;;;;;16.50;2.63;;;;;;;;;;5019541;28;20287;-74
2023/02/27 01:23:22;;;;;;;19.15;2.67;;;11.20;99.90;;;;;;5030392;28;20057;-74
2023/02/27 01:26:27;;;;;;;16.15;3.65;;;;;;;;;;5031669;28;20056;-73
2023/02/27 01:29:31;;;;;;;18.60;2.90;;;15.20;99.90;;;;;;5031562;28;20044;-73
2023/02/27 01:32:35;;;;;;;17.40;2.55;;;12.60;99.90;;;;;;5030547;28;20048;-73
2023/02/27 01:35:41;;;;;;;15.82;3.05;;;12.60;99.90;;;;;;5030265;28;20048;-73
2023/02/27 01:38:45;;;;;;;11.35;2.28;;;;;;;;;;5031534;28;20040;-73
2023/02/27 01:41:49;;;;;;;12.63;3.28;;;12.30;99.90;;;;;;5030531;28;20052;-73
2023/02/27 01:45:02;;;;;;;13.95;2.00;;;14.10;99.90;;;;;;5031124;28;20041;-73
2023/02/27 01:48:15;;;;;;;13.93;1.88;;;12.60;99.30;;;;;;5030395;28;20052;-73
2023/02/27 01:51:20;;;;;;;13.50;2.17;;;12.70;99.90;;;;;;5041501;28;20048;-74
2023/02/27 01:54:25;;;;;;;19.10;2.47;;;12.50;99.90;;;;;;5030384;28;20048;-73
2023/02/27 01:57:30;;;;;;;12.27;2.45;;;;;;;;;;5031244;28;20048;-73
2023/02/27 02:00:34;;;;;;;9.20;2.00;;;11.00;99.90;;;;;;5030268;28;20034;-73
2023/02/27 02:03:49;;;;;;;13.40;2.30;;;13.00;99.90;;;;;;5031298;28;20052;-73
2023/02/27 02:07:03;;;;;;;18.35;1.83;;;13.10;99.90;;;;;;5031489;28;20044;-73
2023/02/27 02:10:10;;;;;;;14.77;1.88;;;12.60;99.90;;;;;;5030531;28;20469;-73
2023/02/27 02:13:15;;;;;;;12.57;2.40;;;;;;;;;;5029970;28;20044;-73
2023/02/27 02:16:46;;;;;;;14.48;2.47;;;12.70;99.90;;;;;;5031047;28;20060;-73
2023/02/27 02:20:08;;;;;;;;;;;12.70;99.90;;;;;;5031594;28;20052;-73
2023/02/27 02:23:31;;;;;;;16.67;2.97;;;12.20;99.90;;;;;;5030168;28;19924;-74
2023/02/27 02:27:03;;;;;;;10.77;2.20;;;12.50;99.90;;;;;;5030762;28;20044;-74
2023/02/27 02:30:08;;;;;;;14.13;2.50;;;;;;;;;;5033290;28;20037;-74
2023/02/27 02:33:33;;;;;;;17.85;2.55;;;12.50;99.90;;;;;;5034262;28;20033;-74
2023/02/27 02:36:59;;;;;;;12.25;2.45;;;12.50;99.90;;;;;;5035137;28;20072;-73
2023/02/27 02:40:34;;;;;;;10.35;2.60;;;12.50;99.90;;;;;;5034635;28;20040;-72
2023/02/27 02:43:44;;;;;;;11.63;1.65;;;12.40;99.90;;;;;;5034632;28;20042;-73
2023/02/27 02:47:02;;;;;;;12.65;1.75;;;12.40;99.90;;;;;;5034824;28;20060;-73
2023/02/27 02:50:40;;;;;;;11.55;1.77;;;12.50;99.90;;;;;;5035075;28;20052;-73
2023/02/27 02:53:56;;;;;;;13.05;1.95;;;12.60;99.90;;;;;;5034635;28;20056;-73
2023/02/27 02:57:13;;;;;;;12.55;1.92;;;11.90;99.90;;;;;;5022805;28;20416;-73
2023/02/27 03:00:24;;;;;;;12.70;2.00;;;12.80;99.90;;;;;;5033591;28;20515;-73
2023/02/27 03:03:37;;;;;;;11.55;2.03;;;12.70;99.90;;;;;;5033987;28;20044;-73
2023/02/27 03:06:47;;;;;;;12.90;2.03;;;12.80;99.90;;;;;;5033506;28;20052;-73
2023/02/27 03:10:04;;;;;;;8.35;2.17;;;12.80;99.90;;;;;;5033937;28;20056;-73
2023/02/27 03:13:14;;;;;;;24.38;1.88;;;12.80;99.90;;;;;;5033687;28;20389;-74
2023/02/27 03:16:25;;;;;;;11.60;2.10;;;12.90;99.90;;;;;;5034339;28;20413;-74
2023/02/27 03:20:04;;;;;;;18.13;3.20;;;13.00;99.90;;;;;;5034316;28;20048;-73
2023/02/27 03:23:15;;;;;;;19.38;2.47;;;13.00;99.90;;;;;;5033134;28;20061;-73
2023/02/27 03:26:23;;;;;;;14.20;3.60;;;13.20;99.90;;;;;;5034291;28;20085;-73
2023/02/27 03:29:49;;;;;;;8.48;1.95;;;12.80;99.90;;;;;;5033178;28;20067;-73
2023/02/27 03:32:55;;;;;;;17.23;2.80;;;;;;;;;;5033356;28;20044;-73
2023/02/27 03:36:21;;;;;;;11.52;2.17;;;12.70;99.90;;;;;;5032682;28;20054;-73
2023/02/27 03:39:53;;;;;;;14.73;1.58;;;13.20;99.90;;;;;;5032987;28;20041;-74
2023/02/27 03:43:31;;;;;;;14.13;2.00;;;12.70;99.80;;;;;;5032843;28;20056;-73
2023/02/27 03:46:36;;;;;;;8.90;1.95;;;12.90;99.60;;;;;;5032945;28;20389;-73
2023/02/27 03:49:41;;;;;;;11.20;1.58;;;12.70;99.50;;;;;;5032679;28;20049;-73
2023/02/27 03:52:45;;;;;;;12.30;1.70;;;13.10;99.50;;;;;;5032516;28;20057;-73
2023/02/27 03:55:51;;;;;;;17.30;2.50;;;13.00;99.30;;;;;;5032429;28;20056;-73
2023/02/27 03:58:55;;;;;;;13.20;1.70;;;;;;;;;;5032550;28;20040;-73
2023/02/27 04:02:01;;;;;;;10.82;1.70;;;13.00;99.70;;;;;;5032936;28;20417;-74
2023/02/27 04:05:07;;;;;;;5.40;1.48;;;13.00;99.90;;;;;;5032970;28;20048;-73
2023/02/27 04:08:18;;;;;;;;;;;13.00;99.90;;;;;;5032812;28;20044;-73
2023/02/27 04:11:33;;;;;;;9.48;1.60;;;11.80;99.80;;;;;;5033292;28;19917;-73
2023/02/27 04:15:02;;;;;;;9.75;1.58;;;12.90;99.90;;;;;;5032853;28;20051;-73
2023/02/27 04:18:40;;;;;;;12.68;2.88;;;12.90;99.90;;;;;;5033271;28;20060;-73
2023/02/27 04:22:09;;;;;;;10.45;1.60;;;11.40;99.90;;;;;;5032609;28;20056;-73
2023/02/27 04:25:23;;;;;;;12.10;1.77;;;15.10;99.90;;;;;;5034792;28;20040;-74
2023/02/27 04:28:57;;;;;;;22.05;2.58;;;12.80;99.90;;;;;;5035242;28;20068;-74
2023/02/27 04:32:15;;;;;;;12.68;2.30;;;12.80;99.90;;;;;;5034636;28;20056;-73
2023/02/27 04:35:39;;;;;;;13.30;2.33;;;12.80;99.90;;;;;;5034528;28;20484;-73
2023/02/27 04:38:50;;;;;;;17.42;2.28;;;12.80;99.90;;;;;;5034856;28;20044;-73
2023/02/27 04:41:58;;;;;;;13.20;2.70;;;12.80;99.90;;;;;;5036214;28;20037;-72
2023/02/27 04:45:07;;;;;;;7.82;1.70;;;12.90;99.90;;;;;;5034850;28;20527;-73
2023/02/27 04:48:24;;;;;;;14.48;2.30;;;12.70;99.90;;;;;;5034760;28;20401;-73
2023/02/27 04:51:35;;;;;;;11.50;2.30;;;10.90;99.90;;;;;;5034846;28;20052;-73
2023/02/27 04:54:52;;;;;;;12.68;2.25;;;12.80;99.90;;;;;;5034371;28;20508;-73
2023/02/27 04:58:06;;;;;;;15.88;2.40;;;12.60;99.90;;;;;;5035392;28;20048;-72
2023/02/27 05:01:17;;;;;;;13.85;2.45;;;13.90;99.90;;;;;;5034566;28;20049;-73
2023/02/27 05:04:24;;;;;;;10.60;2.10;;;15.90;99.90;;;;;;5034279;28;20056;-73
2023/02/27 05:07:43;;;;;;;10.93;1.73;;;12.20;99.90;;;;;;5034241;28;20052;-73
2023/02/27 05:10:56;;;;;;;9.98;1.98;;;12.80;99.90;;;;;;5032382;28;20044;-72
2023/02/27 05:14:10;;;;;;;9.70;1.58;;;12.70;99.90;;;;;;5031957;28;20056;-74
2023/02/27 05:17:19;;;;;;;18.40;3.58;;;12.50;99.90;;;;;;5031741;28;20048;-73
2023/02/27 05:20:28;;;;;;;6.72;1.92;;;12.90;99.90;;;;;;5031778;28;20041;-73
2023/02/27 05:23:48;;;;;;;16.50;3.05;;;13.30;99.90;;;;;;5031083;28;20065;-74
2023/02/27 05:27:10;;;;;;;13.57;2.28;;;11.70;99.40;;;;;;5032002;28;20508;-74
2023/02/27 05:30:45;;;;;;;17.95;2.00;;;16.90;99.90;;;;;;5031747;28;20504;-74
2023/02/27 05:33:58;;;;;;;21.33;2.38;;;12.60;99.60;;;;;;5031776;28;20401;-74
2023/02/27 05:37:12;;;;;;;16.27;1.73;;;12.50;99.70;;;;;;5031597;28;20052;-73
2023/02/27 05:40:24;;;;;;;26.50;4.43;;;13.40;99.90;;;;;;5031114;28;20045;-74
2023/02/27 05:43:33;;;;;;;16.98;2.85;;;12.10;99.90;;;;;;5031854;28;20048;-73
2023/02/27 05:46:44;;;;;;;21.23;3.72;;;12.40;99.90;;;;;;5031355;28;20060;-74
2023/02/27 05:49:51;;;;;;;14.43;2.55;;;;;;;;;;5031429;28;20041;-74
2023/02/27 05:52:59;;;;;;;15.43;2.00;;;13.90;99.90;;;;;;5031409;28;20053;-74
2023/02/27 05:56:05;;;;;;;11.10;1.60;;;12.40;99.90;;;;;;5031137;28;20536;-73
2023/02/27 05:59:16;;;;;;;17.73;3.45;;;12.40;99.90;;;;;;5031211;28;20048;-74
2023/02/27 06:02:20;;;;;;;12.00;2.90;;;12.20;99.90;;;;;;5031278;28;20048;-73
2023/02/27 06:05:25;;;;;;;13.15;2.63;;;12.30;99.90;;;;;;5034511;28;20443;-74
2023/02/27 06:08:31;;;;;;;16.48;2.60;;;;;;;;;;5034991;28;20068;-73
2023/02/27 06:11:35;;;;;;;20.35;3.63;;;12.20;99.90;;;;;;5035492;28;20378;-73
2023/02/27 06:14:39;;;;;;;15.32;3.53;;;;;;;;;;5034486;28;20060;-73
2023/02/27 06:17:44;;;;;;;18.67;4.35;;;;;;;;;;5034955;28;20068;-74
2023/02/27 06:20:48;;;;;;;18.38;4.15;;;11.20;99.90;;;;;;5033836;28;20041;-74
2023/02/27 06:23:52;;;;;;;16.73;3.00;;;12.00;99.90;;;;;;5034273;28;20045;-73
2023/02/27 06:26:56;;;;;;;14.20;2.25;;;11.90;99.90;;;;;;5034711;28;20381;-74
2023/02/27 06:30:00;;;;;;;11.00;2.40;;;12.00;99.90;;;;;;5033839;28;20043;-71
2023/02/27 06:33:04;;;;;;;15.45;2.30;;;11.90;99.90;;;;;;5032420;28;20048;-72
2023/02/27 06:36:08;;;;;;;16.30;3.15;;;;;;;;;;5032724;28;20052;-70
2023/02/27 06:39:13;;;;;;;12.45;3.00;;;;;;;;;;5033766;28;20038;-69
2023/02/27 06:42:17;;;;;;;10.77;2.75;;;;;;;;;;5032762;28;20504;-69
2023/02/27 06:45:23;;;;;;;10.90;3.00;;;11.40;99.90;;;;;;5034161;28;20053;-69
2023/02/27 06:48:26;;;;;;;13.40;4.65;;;12.20;99.90;;;;;;5045196;28;20105;-70
2023/02/27 06:51:31;;;;;;;32.22;5.75;;;;;;;;;;5033806;28;20045;-70
2023/02/27 06:54:35;;;;;;;21.95;5.07;;;12.20;99.90;;;;;;5034124;28;20033;-72
2023/02/27 06:57:39;;;;;;;19.73;5.75;;;;;;;;;;5033315;28;20495;-68
2023/02/27 07:00:44;;;;;;;18.63;5.55;;;;;;;;;;5033929;28;20030;-70
2023/02/27 07:03:48;;;;;;;21.73;4.45;;;;;;;;;;5033781;28;20048;-70
2023/02/27 07:06:52;;;;;;;15.88;3.85;;;12.10;99.90;;;;;;5034035;28;20041;-71
2023/02/27 07:09:57;;;;;;;11.57;3.22;;;;;;;;;;5033887;28;20045;-70
2023/02/27 07:13:01;;;;;;;12.85;3.00;;;12.10;99.90;;;;;;5033809;28;20096;-69
2023/02/27 07:16:06;;;;;;;9.85;2.88;;;;;;;;;;5033521;28;20520;-69
2023/02/27 07:19:10;;;;;;;14.05;3.47;;;;;;;;;;5033770;28;20217;-71
2023/02/27 07:22:15;;;;;;;13.98;3.72;;;;;;;;;;5032552;28;20041;-69
2023/02/27 07:25:19;;;;;;;12.38;3.10;;;12.10;99.90;;;;;;5033445;28;20046;-70
2023/02/27 07:28:23;;;;;;;10.95;3.72;;;;;;;;;;5033756;28;20056;-70
2023/02/27 07:31:27;;;;;;;10.55;2.70;;;12.30;99.90;;;;;;5021404;28;20045;-71
2023/02/27 07:34:30;;;;;;;9.65;2.78;;;12.30;99.90;;;;;;5033638;28;20045;-69
2023/02/27 07:37:35;;;;;;;11.05;2.92;;;12.10;99.90;;;;;;5033647;28;20095;-72
2023/02/27 07:40:39;;;;;;;11.45;2.83;;;12.30;99.90;;;;;;5032246;28;20044;-71
2023/02/27 07:43:43;;;;;;;14.45;2.70;;;12.20;99.90;;;;;;5033395;28;20048;-70
2023/02/27 07:46:47;;;;;;;6.00;3.03;;;12.30;99.90;;;;;;5033279;28;20052;-69
2023/02/27 07:49:51;;;;;;;11.77;3.33;;;;;;;;;;5033673;28;20041;-69
2023/02/27 07:52:55;;;;;;;8.40;3.72;;;12.30;99.90;;;;;;5032978;28;20038;-70
2023/02/27 07:56:19;;;;;;;11.20;2.72;;;;;;;;;;5033096;28;20057;-71
2023/02/27 07:59:23;;;;;;;10.05;3.25;;;12.30;99.90;;;;;;5032987;28;20034;-69
2023/02/27 08:02:27;;;;;;;11.35;2.42;;;12.30;99.90;;;;;;5031943;28;20524;-70
2023/02/27 08:05:31;;;;;;;6.97;2.40;;;12.30;99.90;;;;;;5032723;28;20661;-77
2023/02/27 08:08:35;;;;;;;10.98;2.97;;;;;;;;;;5032057;28;20041;-69
2023/02/27 08:11:39;;;;;;;15.73;3.38;;;12.60;99.90;;;;;;5033032;28;20056;-70
2023/02/27 08:14:44;;;;;;;9.05;3.20;;;;;;;;;;5032610;28;20044;-69
2023/02/27 08:17:48;;;;;;;10.32;3.67;;;12.50;99.90;;;;;;5031958;28;20041;-72
2023/02/27 08:20:55;;;;;;;17.80;4.95;;;12.40;99.90;;;;;;5031912;28;20053;-69
2023/02/27 08:23:59;;;;;;;10.25;3.42;;;12.00;99.90;;;;;;5032886;28;20056;-72
2023/02/27 08:27:03;;;;;;;16.33;3.80;;;12.10;99.90;;;;;;5020319;28;20515;-70
2023/02/27 08:30:09;;;;;;;10.52;3.30;;;12.10;99.90;;;;;;5032716;28;20041;-70
2023/02/27 08:33:14;;;;;;;13.38;3.63;;;;;;;;;;5032549;28;20040;-73
2023/02/27 08:36:18;;;;;;;12.10;3.15;;;12.00;99.90;;;;;;5032106;28;20041;-73
2023/02/27 08:39:24;;;;;;;13.77;4.60;;;12.00;99.90;;;;;;5029917;28;20036;-71
2023/02/27 08:42:29;;;;;;;11.13;4.78;;;;;;;;;;5031704;28;20551;-72
2023/02/27 08:45:33;;;;;;;9.40;3.35;;;;;;;;;;5031719;28;20033;-75
2023/02/27 08:48:38;;;;;;;12.48;3.42;;;;;;;;;;5031963;28;20045;-69
2023/02/27 08:51:42;;;;;;;10.30;4.18;;;12.20;99.90;;;;;;5031781;28;20042;-71
2023/02/27 08:54:46;;;;;;;8.43;3.70;;;;;;;;;;5031617;28;20049;-73
2023/02/27 08:57:50;;;;;;;12.55;4.20;;;;;;;;;;5031797;28;20382;-72
2023/02/27 09:00:54;;;;;;;10.73;3.92;;;12.30;99.90;;;;;;5031798;28;20033;-72
2023/02/27 09:04:00;;;;;;;13.90;3.67;;;12.30;99.90;;;;;;5031957;28;20048;-70
2023/02/27 09:07:04;;;;;;;7.00;3.15;;;12.90;99.90;;;;;;5032180;28;20041;-69
2023/02/27 09:10:09;;;;;;;11.07;3.45;;;11.30;99.90;;;;;;5032221;28;20500;-71
2023/02/27 09:13:14;;;;;;;8.93;3.83;;;12.20;99.90;;;;;;5032314;28;20040;-70
2023/02/27 09:16:20;;;;;;;11.75;3.67;;;12.20;99.90;;;;;;5032403;28;20056;-74
2023/02/27 09:19:25;;;;;;;11.60;3.60;;;12.30;99.90;;;;;;5031102;28;20044;-71
2023/02/27 09:22:29;;;;;;;9.65;3.13;;;;;;;;;;5030951;28;20064;-69
2023/02/27 09:25:33;;;;;;;9.18;2.80;;;12.60;99.90;;;;;;5031803;28;20484;-73
2023/02/27 09:28:41;;;;;;;6.13;2.05;;;12.40;99.90;;;;;;5032064;28;20044;-70
2023/02/27 09:31:45;;;;;;;6.97;2.47;;;;;;;;;;5031812;28;20056;-71
2023/02/27 09:34:49;;;;;;;4.57;2.20;;;;;;;;;;5031103;28;20041;-67
2023/02/27 09:37:53;;;;;;;8.40;2.83;;;;;;;;;;5031468;28;20049;-71
2023/02/27 09:40:58;;;;;;;13.10;2.30;;;;;;;;;;5030890;28;20037;-71
2023/02/27 09:44:12;;;;;;;8.95;1.73;;;12.70;98.90;;;;;;5031615;28;20049;-72
2023/02/27 09:47:25;;;;;;;4.97;1.58;;;14.10;98.70;;;;;;5031512;28;20050;-69
2023/02/27 09:50:39;;;;;;;4.30;1.95;;;12.80;98.30;;;;;;5031724;28;20057;-72
2023/02/27 09:53:51;;;;;;;5.03;1.70;;;13.10;98.40;;;;;;5030672;28;20040;-72
2023/02/27 09:56:59;;;;;;;5.57;1.80;;;13.10;97.50;;;;;;5031059;28;20404;-71
2023/02/27 10:00:23;;;;;;;6.97;2.00;;;12.40;97.50;;;;;;5030703;28;20687;-71
2023/02/27 10:03:35;;;;;;;5.15;1.48;;;11.10;96.90;;;;;;5035786;28;20048;-72
2023/02/27 10:07:04;;;;;;;4.43;1.65;;;13.20;97.70;;;;;;5031702;28;20179;-72
2023/02/27 10:10:18;;;;;;;3.58;1.42;;;13.10;97.10;;;;;;5031366;28;20045;-71
2023/02/27 10:13:43;;;;;;;4.93;1.70;;;13.30;97.00;;;;;;5030542;28;20048;-72
2023/02/27 10:16:50;;;;;;;9.35;1.92;;;13.50;96.90;;;;;;5030867;28;20052;-73
2023/02/27 10:19:55;;;;;;;9.05;2.58;;;13.30;97.10;;;;;;5030911;28;20045;-72
2023/02/27 10:23:04;;;;;;;12.25;2.10;;;13.40;97.20;;;;;;5030435;28;20048;-70
2023/02/27 10:26:21;;;;;;;6.68;1.85;;;13.50;97.00;;;;;;5031427;28;20044;-71
2023/02/27 10:29:38;;;;;;;5.28;1.95;;;12.90;96.50;;;;;;5030789;28;20048;-72
2023/02/27 10:32:43;;;;;;;7.05;2.10;;;;;;;;;;5030112;28;20049;-72
2023/02/27 10:35:50;;;;;;;10.48;3.33;;;;;;;;;;5031197;28;20033;-72
2023/02/27 10:38:59;;;;;;;7.50;3.00;;;14.20;97.40;;;;;;5019154;28;20064;-73
2023/02/27 10:42:06;;;;;;;10.93;3.50;;;13.70;97.60;;;;;;5030624;28;20044;-71
2023/02/27 10:45:14;;;;;;;8.13;3.35;;;13.50;97.30;;;;;;5029672;28;20044;-70
2023/02/27 10:48:19;;;;;;;10.00;3.47;;;13.50;97.90;;;;;;5030627;28;20385;-72
2023/02/27 10:51:30;;;;;;;9.18;3.80;;;13.30;98.50;;;;;;5033559;28;20070;-70
2023/02/27 10:54:34;;;;;;;23.00;3.80;;;;;;;;;;5034204;28;20064;-71
2023/02/27 10:57:42;;;;;;;5.50;2.22;;;13.00;97.60;;;;;;5033859;28;20366;-71
2023/02/27 11:00:55;;;;;;;5.70;1.73;;;13.40;97.90;;;;;;5034000;28;20036;-71
2023/02/27 11:03:59;;;;;;;6.03;1.73;;;;;;;;;;5034201;28;20109;-70
2023/02/27 11:07:05;;;;;;;8.35;2.78;;;;;;;;;;5034239;28;20037;-72
2023/02/27 11:10:12;;;;;;;9.05;2.60;;;12.50;97.60;;;;;;5032397;28;20049;-70
2023/02/27 11:13:21;;;;;;;11.38;3.42;;;13.80;97.90;;;;;;5033445;28;20397;-69
2023/02/27 11:16:25;;;;;;;6.53;2.67;;;;;;;;;;5033603;28;20060;-68
2023/02/27 11:19:30;;;;;;;7.57;2.30;;;;;;;;;;5032896;28;20033;-71
2023/02/27 11:22:34;;;;;;;5.60;1.92;;;14.50;96.80;;;;;;5033226;28;20045;-69
2023/02/27 11:25:41;;;;;;;6.70;2.55;;;13.50;97.10;;;;;;5033443;28;20048;-70
2023/02/27 11:29:01;;;;;;;7.30;2.55;;;13.50;97.60;;;;;;5033421;28;20041;-69
2023/02/27 11:32:13;;;;;;;6.68;2.80;;;13.50;97.20;;;;;;5033339;28;20044;-70
2023/02/27 11:35:33;;;;;;;6.32;2.53;;;13.50;96.90;;;;;;5032355;28;20057;-69
2023/02/27 11:38:38;;;;;;;3.72;1.88;;;12.60;96.70;;;;;;5033204;28;20065;-68
2023/02/27 11:41:43;;;;;;;6.25;2.50;;;16.70;97.90;;;;;;5032916;28;20061;-73
2023/02/27 11:44:59;;;;;;;8.60;2.80;;;13.30;97.60;;;;;;5033436;28;20056;-71
2023/02/27 11:48:20;;;;;;;5.07;2.63;;;13.30;97.70;;;;;;5033345;28;20062;-70
2023/02/27 11:51:48;;;;;;;8.00;3.53;;;13.40;98.10;;;;;;5032828;28;20044;-69
2023/02/27 11:55:02;;;;;;;5.55;2.70;;;13.20;97.50;;;;;;5032966;28;20052;-69
2023/02/27 11:58:15;;;;;;;6.07;2.55;;;13.80;98.00;;;;;;5033404;28;20060;-68
2023/02/27 12:01:51;;;;;;;4.80;2.70;;;13.10;98.60;;;;;;5032287;28;20073;-70
2023/02/27 12:05:04;;;;;;;7.18;2.40;;;12.90;99.00;;;;;;5032847;28;20064;-71
2023/02/27 12:08:30;;;;;;;4.93;2.40;;;13.10;99.20;;;;;;5032738;28;20056;-70
2023/02/27 12:11:42;;;;;;;7.22;3.08;;;13.40;99.50;;;;;;5031070;28;20056;-73
2023/02/27 12:15:06;;;;;;;12.57;4.13;;;12.30;99.70;;;;;;5033721;28;20048;-71
2023/02/27 12:18:10;;;;;;;6.85;3.00;;;;;;;;;;5033651;28;20068;-71
2023/02/27 12:21:25;;;;;;;3.58;2.22;;;13.30;98.90;;;;;;5032761;28;20042;-71
2023/02/27 12:24:36;;;;;;;5.38;2.55;;;13.60;99.00;;;;;;5032359;28;20060;-69
2023/02/27 12:28:09;;;;;;;7.28;2.65;;;13.70;98.80;;;;;;5032634;28;20048;-69
2023/02/27 12:31:31;;;;;;;4.85;3.47;;;13.70;98.00;;;;;;5031325;28;20125;-72
2023/02/27 12:34:59;;;;;;;6.13;2.58;;;14.60;98.50;;;;;;5032286;28;20551;-72
2023/02/27 12:38:04;;;;;;;5.47;2.20;;;;;;;;;;5032063;28;20045;-73
2023/02/27 12:41:27;;;;;;;2.85;1.88;;;15.30;96.60;;;;;;5032197;28;20037;-71
2023/02/27 12:44:35;;;;;;;4.55;2.20;;;13.80;96.20;;;;;;5032172;28;20049;-71
2023/02/27 12:48:16;;;;;;;3.63;2.00;;;13.80;95.60;;;;;;5032140;28;20046;-70
2023/02/27 12:51:37;;;;;;;3.05;2.03;;;14.00;95.60;;;;;;5031924;28;20512;-69
2023/02/27 12:55:05;;;;;;;2.00;1.25;;;14.10;95.10;;;;;;5031839;28;20033;-73
2023/02/27 12:58:10;;;;;;;3.15;2.00;;;;;;;;;;5030920;28;20049;-72
2023/02/27 13:01:44;;;;;;;2.63;1.20;;;13.50;94.10;;;;;;5032068;28;20037;-72
2023/02/27 13:05:22;;;;;;;4.70;2.00;;;14.20;94.30;;;;;;5032068;28;20048;-71
2023/02/27 13:08:29;;;;;;;3.08;2.17;;;14.10;95.00;;;;;;5032161;28;20045;-69
2023/02/27 13:11:43;;;;;;;2.95;1.65;;;15.20;95.10;;;;;;5033253;28;20061;-72
2023/02/27 13:15:03;;;;;;;2.33;1.20;;;15.40;94.30;;;;;;5032506;28;20044;-71
2023/02/27 13:18:27;;;;;;;7.22;2.10;;;14.00;94.40;;;;;;5031782;28;20053;-70
2023/02/27 13:21:42;;;;;;;5.28;2.58;;;12.70;94.20;;;;;;5031410;28;20041;-70
2023/02/27 13:25:13;;;;;;;5.45;1.88;;;16.80;95.20;;;;;;5031775;28;20056;-72
2023/02/27 13:28:26;;;;;;;3.42;1.45;;;14.40;94.40;;;;;;5031836;28;20508;-69
2023/02/27 13:31:56;;;;;;;3.03;1.48;;;14.20;94.50;;;;;;5030601;28;20578;-71
2023/02/27 13:35:46;;;;;;;4.00;1.75;;;14.10;93.90;;;;;;5031736;28;20060;-71
2023/02/27 13:38:52;;;;;;;6.22;1.88;;;14.40;94.00;;;;;;5030711;28;20064;-68
2023/02/27 13:41:56;;;;;;;4.80;1.90;;;14.50;94.00;;;;;;5031328;28;20056;-69
2023/02/27 13:45:24;;;;;;;4.78;2.53;;;14.40;93.90;;;;;;5030687;28;20044;-70
2023/02/27 13:48:44;;;;;;;9.40;2.80;;;14.70;94.40;;;;;;5031153;28;20048;-69
2023/02/27 13:51:49;;;;;;;5.80;2.90;;;12.90;93.60;;;;;;5030861;28;20049;-69
2023/02/27 13:54:52;;;;;;;10.93;2.30;;;14.80;93.70;;;;;;5029674;28;20512;-70
2023/02/27 13:57:58;;;;;;;7.75;2.13;;;14.70;93.70;;;;;;5030923;28;20064;-70
2023/02/27 14:01:04;;;;;;;3.78;2.00;;;14.70;94.30;;;;;;5030871;28;20045;-71
2023/02/27 14:04:18;;;;;;;4.97;2.33;;;14.80;93.90;;;;;;5030198;28;20040;-71
2023/02/27 14:07:28;;;;;;;4.50;2.10;;;14.70;93.90;;;;;;5030549;28;20052;-71
2023/02/27 14:10:34;;;;;;;4.00;2.55;;;14.60;92.90;;;;;;5028818;28;20064;-72
2023/02/27 14:13:44;;;;;;;5.38;2.63;;;14.60;93.00;;;;;;5029270;28;20048;-71
2023/02/27 14:16:48;;;;;;;4.22;2.38;;;14.50;93.50;;;;;;5030330;28;20060;-71
2023/02/27 14:19:55;;;;;;;5.47;3.00;;;14.50;93.40;;;;;;5030995;28;20052;-70
2023/02/27 14:23:14;;;;;;;5.18;2.58;;;14.60;93.40;;;;;;5030524;28;20069;-71
2023/02/27 14:26:23;;;;;;;8.65;3.45;;;15.90;93.60;;;;;;5033965;28;20053;-70
2023/02/27 14:29:32;;;;;;;6.45;2.70;;;14.70;93.30;;;;;;5034699;28;20390;-71
2023/02/27 14:32:37;;;;;;;6.25;2.47;;;14.70;93.60;;;;;;5034560;28;20044;-71
2023/02/27 14:36:03;;;;;;;7.57;3.03;;;14.30;92.80;;;;;;5034380;28;20519;-71
2023/02/27 14:39:25;;;;;;;7.38;2.33;;;14.80;93.00;;;;;;5034551;28;20053;-71
2023/02/27 14:43:40;;;;;;;7.25;2.50;;;14.80;93.20;;;;;;5034277;28;20052;-72
2023/02/27 14:46:43;;;;;;;8.88;3.17;;;14.70;93.00;;;;;;5032481;28;20045;-68
2023/02/27 14:49:48;;;;;;;4.95;2.50;;;15.80;93.00;;;;;;5034492;28;20052;-69
2023/02/27 14:52:52;;;;;;;8.77;2.50;;;14.60;92.80;;;;;;5034518;28;20056;-71
2023/02/27 14:55:58;;;;;;;17.70;8.77;;;14.70;92.80;;;;;;5034046;28;20044;-69
2023/02/27 14:59:01;;;;;;;5.55;2.03;;;14.60;92.30;;;;;;5034314;28;20044;-70
2023/02/27 15:02:23;;;;;;;5.70;2.90;;;14.60;92.50;;;;;;5034507;28;20064;-73
2023/02/27 15:05:30;;;;;;;5.82;1.95;;;14.70;92.70;;;;;;5033960;28;20056;-70
2023/02/27 15:08:39;;;;;;;3.53;2.13;;;14.60;92.90;;;;;;5033777;28;20044;-72
2023/02/27 15:11:43;;;;;;;2.58;1.90;;;14.70;92.60;;;;;;5033624;28;20049;-73
2023/02/27 15:14:53;;;;;;;5.55;2.90;;;14.70;92.50;;;;;;5033969;28;20548;-71
2023/02/27 15:17:58;;;;;;;5.15;2.47;;;14.70;92.70;;;;;;5033499;28;20060;-70
2023/02/27 15:21:02;;;;;;;6.32;2.38;;;14.70;92.60;;;;;;5033815;28;20044;-72
2023/02/27 15:24:07;;;;;;;7.20;2.78;;;14.70;93.00;;;;;;5033980;28;20057;-73
2023/02/27 15:27:17;;;;;;;4.88;2.10;;;14.70;93.00;;;;;;5033980;28;20048;-72
2023/02/27 15:30:22;;;;;;;6.18;2.50;;;14.70;92.80;;;;;;5034125;28;20508;-68
2023/02/27 15:33:32;;;;;;;5.57;2.83;;;14.80;92.90;;;;;;5033309;28;20044;-73
2023/02/27 15:36:47;;;;;;;8.27;3.83;;;14.60;93.20;;;;;;5032357;28;20072;-71
2023/02/27 15:39:52;;;;;;;8.20;2.58;;;14.60;93.20;;;;;;5033984;28;20056;-72
2023/02/27 15:42:57;;;;;;;11.25;2.42;;;14.70;93.40;;;;;;5033965;28;20044;-72
2023/02/27 15:46:02;;;;;;;16.50;2.03;;;14.70;93.60;;;;;;5034174;28;20048;-72
2023/02/27 15:49:09;;;;;;;5.50;1.50;;;14.60;93.80;;;;;;5033926;28;20061;-72
2023/02/27 15:52:23;;;;;;;10.10;2.40;;;14.50;93.40;;;;;;5033362;28;20048;-73
2023/02/27 15:55:32;;;;;;;18.95;3.65;;;14.50;93.60;;;;;;5033650;28;20104;-72
2023/02/27 15:58:47;;;;;;;7.50;2.10;;;14.80;94.00;;;;;;5032557;28;20677;-72
2023/02/27 16:01:51;;;;;;;10.32;2.45;;;17.60;95.20;;;;;;5033400;28;20048;-72
2023/02/27 16:04:56;;;;;;;9.90;2.78;;;14.50;94.60;;;;;;5033177;28;20056;-73
2023/02/27 16:08:02;;;;;;;14.77;2.75;;;14.30;94.80;;;;;;5033729;28;20046;-72
2023/02/27 16:11:06;;;;;;;14.18;2.80;;;14.40;95.00;;;;;;5033225;28;20056;-72
2023/02/27 16:14:35;;;;;;;17.40;3.50;;;14.30;95.10;;;;;;5033230;28;20500;-73
2023/02/27 16:17:55;;;;;;;11.73;3.15;;;14.40;95.30;;;;;;5033322;28;20409;-72
2023/02/27 16:21:11;;;;;;;14.15;2.67;;;14.40;95.50;;;;;;5032345;28;20049;-70
2023/02/27 16:24:20;;;;;;;14.18;4.45;;;14.30;95.70;;;;;;5032360;28;20064;-72
2023/02/27 16:27:28;;;;;;;17.50;4.65;;;14.10;96.00;;;;;;5032759;28;20048;-73
2023/02/27 16:30:32;;;;;;;17.38;4.65;;;16.50;96.70;;;;;;5031922;28;20049;-73
2023/02/27 16:33:38;;;;;;;13.75;3.90;;;14.20;96.20;;;;;;5032626;28;20048;-73
2023/02/27 16:36:55;;;;;;;11.93;4.95;;;11.20;95.60;;;;;;5032621;28;20064;-72
2023/02/27 16:39:58;;;;;;;21.40;5.57;;;15.30;96.90;;;;;;5032437;28;20643;-71
2023/02/27 16:43:03;;;;;;;22.33;6.30;;;;;;;;;;5032541;28;20052;-72
2023/02/27 16:46:14;;;;;;;21.20;7.13;;;13.90;96.80;;;;;;5032029;28;20037;-71
2023/02/27 16:49:21;;;;;;;35.05;8.18;;;15.00;97.20;;;;;;5032061;28;20497;-71